createdAt,value
2019-02-12T00:00:42.829Z,121.67
2019-02-12T00:03:48.609Z,120.07
2019-02-12T00:06:54.387Z,138.27
2019-02-12T00:10:00.344Z,143.40
2019-02-12T00:13:06.612Z,143.80
2019-02-12T00:16:12.366Z,146.10
2019-02-12T00:19:18.159Z,142.30
2019-02-12T00:22:24.029Z,140.50
2019-02-12T00:25:29.794Z,147.53
2019-02-12T00:28:35.636Z,150.20
2019-02-12T00:31:41.410Z,139.90
2019-02-12T00:34:48.074Z,140.70
2019-02-12T00:37:53.891Z,146.10
2019-02-12T00:40:59.696Z,143.63
2019-02-12T00:44:08.255Z,138.60
2019-02-12T00:47:14.027Z,147.30
2019-02-12T00:50:19.803Z,132.73
2019-02-12T00:53:25.592Z,130.90
2019-02-12T00:56:32.413Z,123.93
2019-02-12T00:59:38.245Z,125.87
2019-02-12T01:02:44.126Z,126.13
2019-02-12T01:05:49.895Z,129.40
2019-02-12T01:08:55.753Z,129.47
2019-02-12T01:12:01.640Z,122.53
2019-02-12T01:15:09.570Z,127.07
2019-02-12T01:18:15.560Z,119.67
2019-02-12T01:21:26.165Z,123.57
2019-02-12T01:24:28.942Z,120.53
2019-02-12T01:27:34.801Z,126.93
2019-02-12T01:30:40.663Z,120.93
2019-02-12T01:33:46.416Z,110.37
2019-02-12T01:36:52.193Z,113.93
2019-02-12T01:39:57.975Z,105.17
2019-02-12T01:43:03.776Z,111.97
2019-02-12T01:46:09.559Z,110.97
2019-02-12T01:49:15.339Z,105.00
2019-02-12T01:52:21.119Z,112.57
2019-02-12T01:55:26.901Z,104.83
2019-02-12T01:58:32.760Z,105.13
2019-02-12T02:01:38.552Z,97.73
2019-02-12T02:04:44.351Z,93.63
2019-02-12T02:07:50.137Z,96.30
2019-02-12T02:10:55.911Z,78.97
2019-02-12T02:14:01.680Z,76.53
2019-02-12T02:17:07.477Z,73.33
2019-02-12T02:20:14.163Z,66.47
2019-02-12T02:23:20.059Z,60.00
2019-02-12T02:26:25.856Z,53.57
2019-02-12T02:29:31.722Z,42.53
2019-02-12T02:32:37.577Z,32.83
2019-02-12T02:35:43.381Z,31.27
2019-02-12T02:38:49.166Z,27.27
2019-02-12T02:41:55.543Z,21.60
2019-02-12T02:45:01.350Z,14.90
2019-02-12T02:48:07.575Z,14.67
2019-02-12T02:51:13.369Z,9.87
2019-02-12T02:54:19.197Z,6.13
2019-02-12T02:57:24.955Z,7.07
2019-02-12T03:00:30.713Z,6.07
2019-02-12T03:03:36.618Z,4.67
2019-02-12T03:06:42.489Z,2.20
2019-02-12T03:09:49.361Z,2.17
2019-02-12T03:12:55.208Z,2.40
2019-02-12T03:16:01.037Z,1.53
2019-02-12T03:19:06.787Z,3.43
2019-02-12T03:22:12.601Z,2.57
2019-02-12T03:25:18.357Z,2.80
2019-02-12T03:28:24.117Z,2.23
2019-02-12T03:31:29.967Z,4.20
2019-02-12T03:34:35.745Z,2.13
2019-02-12T03:37:41.635Z,1.90
2019-02-12T03:40:47.389Z,2.47
2019-02-12T03:43:53.173Z,1.83
2019-02-12T03:46:58.978Z,2.37
2019-02-12T03:50:04.902Z,2.70
2019-02-12T03:53:10.777Z,2.03
2019-02-12T03:56:16.520Z,1.63
2019-02-12T03:59:22.377Z,2.37
2019-02-12T04:02:28.208Z,3.10
2019-02-12T04:05:34.214Z,1.77
2019-02-12T04:08:40.007Z,1.53
2019-02-12T04:11:45.894Z,2.80
2019-02-12T04:14:51.678Z,2.33
2019-02-12T04:17:57.434Z,2.67
2019-02-12T04:21:03.335Z,2.23
2019-02-12T04:24:09.111Z,2.10
2019-02-12T04:27:14.921Z,3.50
2019-02-12T04:30:20.707Z,2.50
2019-02-12T04:33:26.480Z,2.97
2019-02-12T04:36:32.304Z,2.47
2019-02-12T04:39:39.095Z,3.53
2019-02-12T04:42:44.894Z,2.90
2019-02-12T04:45:50.649Z,2.70
2019-02-12T04:49:04.871Z,3.37
2019-02-12T04:52:13.454Z,3.77
2019-02-12T04:55:19.354Z,3.10
2019-02-12T04:58:25.086Z,3.23
2019-02-12T05:01:30.837Z,3.37
2019-02-12T05:04:36.566Z,2.37
2019-02-12T05:07:42.397Z,2.90
2019-02-12T05:10:56.823Z,10.10
2019-02-12T05:14:02.576Z,4.30
2019-02-12T05:17:08.309Z,3.53
2019-02-12T05:20:14.554Z,3.47
2019-02-12T05:23:20.357Z,3.73
2019-02-12T05:26:26.099Z,2.77
2019-02-12T05:29:32.019Z,4.13
2019-02-12T05:32:37.806Z,3.13
2019-02-12T05:35:43.557Z,4.13
2019-02-12T05:38:49.421Z,4.40
2019-02-12T05:41:55.183Z,3.20
2019-02-12T05:45:00.953Z,4.30
2019-02-12T05:48:06.760Z,3.70
2019-02-12T05:51:12.641Z,3.07
2019-02-12T05:54:18.422Z,3.10
2019-02-12T05:57:24.183Z,5.13
2019-02-12T06:00:32.478Z,7.80
2019-02-12T06:03:38.259Z,3.17
2019-02-12T06:06:44.022Z,4.40
2019-02-12T06:09:49.844Z,5.30
2019-02-12T06:12:55.690Z,4.07
2019-02-12T06:16:01.442Z,4.53
2019-02-12T06:19:07.194Z,4.93
2019-02-12T06:22:12.954Z,4.33
2019-02-12T06:25:18.972Z,4.50
2019-02-12T06:28:24.732Z,6.43
2019-02-12T06:31:30.502Z,5.80
2019-02-12T06:34:36.237Z,7.37
2019-02-12T06:37:41.996Z,7.70
2019-02-12T06:40:47.789Z,6.70
2019-02-12T06:43:53.532Z,7.70
2019-02-12T06:46:59.299Z,5.77
2019-02-12T06:50:05.545Z,4.93
2019-02-12T06:53:12.745Z,4.97
2019-02-12T06:56:18.793Z,7.33
2019-02-12T06:59:24.553Z,5.77
2019-02-12T07:03:05.913Z,4.87
2019-02-12T07:06:39.953Z,5.90
2019-02-12T07:09:49.807Z,5.57
2019-02-12T07:13:39.553Z,8.07
2019-02-12T07:17:12.276Z,7.07
2019-02-12T07:20:45.604Z,5.40
2019-02-12T07:24:31.763Z,4.37
2019-02-12T07:28:20.356Z,8.73
2019-02-12T07:32:18.916Z,5.43
2019-02-12T07:35:51.835Z,5.33
2019-02-12T07:39:09.991Z,4.97
2019-02-12T07:42:55.526Z,2.67
2019-02-12T07:46:30.424Z,6.77
2019-02-12T07:50:10.878Z,5.87
2019-02-12T07:53:40.389Z,4.23
2019-02-12T07:57:31.431Z,11.07
2019-02-12T08:01:26.073Z,5.27
2019-02-12T08:05:29.348Z,4.00
2019-02-12T08:09:11.513Z,8.00
2019-02-12T08:12:43.824Z,4.70
2019-02-12T08:16:29.742Z,3.50
2019-02-12T08:20:12.880Z,7.10
2019-02-12T08:23:56.381Z,5.43
2019-02-12T08:27:27.906Z,6.40
2019-02-12T08:31:01.368Z,6.20
2019-02-12T08:34:45.062Z,4.23
2019-02-12T08:38:27.136Z,5.97
2019-02-12T08:42:01.838Z,4.70
2019-02-12T08:45:42.880Z,8.27
2019-02-12T08:49:18.202Z,4.20
2019-02-12T08:52:54.211Z,6.57
2019-02-12T08:56:34.846Z,6.83
2019-02-12T09:00:06.840Z,4.03
2019-02-12T09:04:09.576Z,6.10
2019-02-12T09:07:29.883Z,3.43
2019-02-12T09:11:08.847Z,6.43
2019-02-12T09:14:51.245Z,5.80
2019-02-12T09:18:39.911Z,5.77
2019-02-12T09:22:12.682Z,5.33
2019-02-12T09:25:55.793Z,3.10
2019-02-12T09:29:29.732Z,6.97
2019-02-12T09:33:00.496Z,5.37
2019-02-12T09:36:43.844Z,4.77
2019-02-12T09:40:35.352Z,2.13
2019-02-12T09:44:13.772Z,10.70
2019-02-12T09:47:55.875Z,7.60
2019-02-12T09:51:29.371Z,2.47
2019-02-12T09:55:31.400Z,7.47
2019-02-12T09:59:04.253Z,4.50
2019-02-12T10:02:54.980Z,7.13
2019-02-12T10:06:21.320Z,5.23
2019-02-12T10:09:48.989Z,4.37
2019-02-12T10:13:29.737Z,3.93
2019-02-12T10:17:19.026Z,5.47
2019-02-12T10:20:46.774Z,3.57
2019-02-12T10:24:33.444Z,3.43
2019-02-12T10:28:22.935Z,6.03
2019-02-12T10:31:42.687Z,5.20
2019-02-12T10:34:49.541Z,4.73
2019-02-12T10:37:55.316Z,6.80
2019-02-12T10:41:01.430Z,3.60
2019-02-12T10:44:07.383Z,4.03
2019-02-12T10:47:13.340Z,5.17
2019-02-12T10:50:19.191Z,2.83
2019-02-12T10:53:25.001Z,2.93
2019-02-12T10:56:30.923Z,2.77
2019-02-12T10:59:36.680Z,5.93
2019-02-12T11:02:42.592Z,2.13
2019-02-12T11:05:48.520Z,3.37
2019-02-12T11:08:54.316Z,2.60
2019-02-12T11:12:00.240Z,5.23
2019-02-12T11:15:07.778Z,4.50
2019-02-12T11:18:13.556Z,4.93
2019-02-12T11:21:19.326Z,4.50
2019-02-12T11:24:25.081Z,4.73
2019-02-12T11:27:30.860Z,4.33
2019-02-12T11:30:36.709Z,3.77
2019-02-12T11:33:42.489Z,4.00
2019-02-12T11:36:48.227Z,4.37
2019-02-12T11:39:53.989Z,3.87
2019-02-12T11:42:59.792Z,3.97
2019-02-12T11:46:05.670Z,5.80
2019-02-12T11:49:11.451Z,5.27
2019-02-12T11:52:17.201Z,2.40
2019-02-12T11:55:22.963Z,3.13
2019-02-12T11:58:28.777Z,5.67
2019-02-12T12:01:34.556Z,4.97
2019-02-12T12:04:40.350Z,4.90
2019-02-12T12:07:46.112Z,3.60
2019-02-12T12:10:51.864Z,4.90
2019-02-12T12:13:57.725Z,10.90
2019-02-12T12:17:03.499Z,3.73
2019-02-12T12:20:10.605Z,6.67
2019-02-12T12:23:16.368Z,5.17
2019-02-12T12:26:22.123Z,4.13
2019-02-12T12:29:27.867Z,7.10
2019-02-12T12:32:33.626Z,4.40
2019-02-12T12:35:39.430Z,10.20
2019-02-12T12:38:45.181Z,3.63
2019-02-12T12:41:50.979Z,5.70
2019-02-12T12:44:56.746Z,7.07
2019-02-12T12:48:02.685Z,6.43
2019-02-12T12:51:08.468Z,3.93
2019-02-12T12:54:14.270Z,3.73
2019-02-12T12:57:20.088Z,5.07
2019-02-12T13:00:25.953Z,5.07
2019-02-12T13:03:31.842Z,3.73
2019-02-12T13:06:37.666Z,3.53
2019-02-12T13:09:43.443Z,5.50
2019-02-12T13:12:49.230Z,5.43
2019-02-12T13:15:55.132Z,6.40
2019-02-12T13:19:00.899Z,6.53
2019-02-12T13:22:06.809Z,6.00
2019-02-12T13:25:12.779Z,5.37
2019-02-12T13:28:18.921Z,6.87
2019-02-12T13:31:24.690Z,4.60
2019-02-12T13:34:30.580Z,5.57
2019-02-12T13:37:36.442Z,6.60
2019-02-12T13:40:42.314Z,5.10
2019-02-12T13:43:48.211Z,5.90
2019-02-12T13:46:54.005Z,5.23
2019-02-12T13:49:59.782Z,5.77
2019-02-12T13:53:05.561Z,8.07
2019-02-12T13:56:11.384Z,5.77
2019-02-12T13:59:17.268Z,8.33
2019-02-12T14:02:23.081Z,7.90
2019-02-12T14:05:28.877Z,7.47
2019-02-12T14:08:34.682Z,10.30
2019-02-12T14:11:40.486Z,7.73
2019-02-12T14:14:46.297Z,6.67
2019-02-12T14:17:52.091Z,6.80
2019-02-12T14:20:58.016Z,7.27
2019-02-12T14:24:03.897Z,6.57
2019-02-12T14:27:09.922Z,8.10
2019-02-12T14:30:15.833Z,6.17
2019-02-12T14:33:21.657Z,4.53
2019-02-12T14:36:27.488Z,5.57
2019-02-12T14:39:33.354Z,5.07
2019-02-12T14:42:39.208Z,7.10
2019-02-12T14:45:45.003Z,8.77
2019-02-12T14:48:50.771Z,7.33
2019-02-12T14:51:56.628Z,7.03
2019-02-12T14:55:02.412Z,5.20
2019-02-12T14:58:08.392Z,4.67
2019-02-12T15:01:14.272Z,6.33
2019-02-12T15:04:20.154Z,6.03
2019-02-12T15:07:26.106Z,9.60
2019-02-12T15:10:31.965Z,8.43
2019-02-12T15:13:41.382Z,9.67
2019-02-12T15:16:47.167Z,8.63
2019-02-12T15:19:53.128Z,7.43
2019-02-12T15:22:58.922Z,6.97
2019-02-12T15:26:04.843Z,8.07
2019-02-12T15:29:10.637Z,8.17
2019-02-12T15:32:16.459Z,6.67
2019-02-12T15:35:22.348Z,3.73
2019-02-12T15:38:28.133Z,4.67
2019-02-12T15:41:34.054Z,6.20
2019-02-12T15:44:39.878Z,10.00
2019-02-12T15:47:45.795Z,18.20
2019-02-12T15:50:51.783Z,12.63
2019-02-12T15:53:57.621Z,10.50
2019-02-12T15:57:03.450Z,11.40
2019-02-12T16:00:15.673Z,19.47
2019-02-12T16:03:22.568Z,20.77
2019-02-12T16:06:28.364Z,7.30
2019-02-12T16:09:35.081Z,24.27
2019-02-12T16:12:41.081Z,13.20
2019-02-12T16:15:47.175Z,13.23
2019-02-12T16:18:53.071Z,8.70
2019-02-12T16:21:58.923Z,14.83
2019-02-12T16:25:04.990Z,10.50
2019-02-12T16:28:10.827Z,10.17
2019-02-12T16:31:18.567Z,12.20
2019-02-12T16:34:24.302Z,9.63
2019-02-12T16:37:30.129Z,9.40
2019-02-12T16:40:35.953Z,7.43
2019-02-12T16:43:41.747Z,8.57
2019-02-12T16:46:47.604Z,7.23
2019-02-12T16:49:53.364Z,6.93
2019-02-12T16:52:59.277Z,6.80
2019-02-12T16:56:08.371Z,7.63
2019-02-12T16:59:12.738Z,6.03
2019-02-12T17:02:18.664Z,7.10
2019-02-12T17:05:24.463Z,6.80
2019-02-12T17:08:30.258Z,12.67
2019-02-12T17:11:36.059Z,8.90
2019-02-12T17:14:41.976Z,8.70
2019-02-12T17:17:47.748Z,15.57
2019-02-12T17:20:53.553Z,8.43
2019-02-12T17:23:59.698Z,11.50
2019-02-12T17:27:05.613Z,6.20
2019-02-12T17:30:12.932Z,13.50
2019-02-12T17:33:19.713Z,8.77
2019-02-12T17:36:25.607Z,12.00
2019-02-12T17:39:31.465Z,11.70
2019-02-12T17:42:37.284Z,10.67
2019-02-12T17:45:43.246Z,10.07
2019-02-12T17:48:49.143Z,10.30
2019-02-12T17:51:56.371Z,9.67
2019-02-12T17:55:02.278Z,7.60
2019-02-12T17:58:08.023Z,9.40
2019-02-12T18:01:14.007Z,8.97
2019-02-12T18:04:22.073Z,12.30
2019-02-12T18:07:27.874Z,12.80
2019-02-12T18:10:33.880Z,11.07
2019-02-12T18:13:39.850Z,13.00
2019-02-12T18:16:45.697Z,20.37
2019-02-12T18:19:52.371Z,21.43
2019-02-12T18:23:00.134Z,17.53
2019-02-12T18:26:05.957Z,15.70
2019-02-12T18:29:11.809Z,16.77
2019-02-12T18:32:19.309Z,11.37
2019-02-12T18:35:25.127Z,13.57
2019-02-12T18:38:30.965Z,8.87
2019-02-12T18:41:38.552Z,12.83
2019-02-12T18:44:44.387Z,19.87
2019-02-12T18:47:52.797Z,14.10
2019-02-12T18:50:58.599Z,16.47
2019-02-12T18:54:04.490Z,12.37
2019-02-12T18:57:10.421Z,11.47
2019-02-12T19:00:18.811Z,11.73
2019-02-12T19:03:24.721Z,11.70
2019-02-12T19:06:31.607Z,9.10
2019-02-12T19:09:37.383Z,9.20
2019-02-12T19:12:43.160Z,8.97
2019-02-12T19:15:50.483Z,6.73
2019-02-12T19:18:56.428Z,8.03
2019-02-12T19:22:02.839Z,9.17
2019-02-12T19:25:11.167Z,8.10
2019-02-12T19:28:17.447Z,7.27
2019-02-12T19:31:24.481Z,9.13
2019-02-12T19:34:30.312Z,7.07
2019-02-12T19:37:36.339Z,9.70
2019-02-12T19:40:43.076Z,7.13
2019-02-12T19:43:48.954Z,9.87
2019-02-12T19:46:54.842Z,10.53
2019-02-12T19:50:00.647Z,12.70
2019-02-12T19:53:07.837Z,10.00
2019-02-12T19:56:13.691Z,13.57
2019-02-12T19:59:19.566Z,13.17
2019-02-12T20:02:25.394Z,12.77
2019-02-12T20:05:31.189Z,9.17
2019-02-12T20:08:38.412Z,11.30
2019-02-12T20:11:44.569Z,11.37
2019-02-12T20:14:50.365Z,13.30
2019-02-12T20:17:58.806Z,10.50
2019-02-12T20:21:06.277Z,17.30
2019-02-12T20:24:12.186Z,12.00
2019-02-12T20:27:18.021Z,15.13
2019-02-12T20:30:27.435Z,18.90
2019-02-12T20:33:33.323Z,14.43
2019-02-12T20:36:40.359Z,16.60
2019-02-12T20:39:48.852Z,10.80
2019-02-12T20:42:56.127Z,12.40
2019-02-12T20:46:01.985Z,26.20
2019-02-12T20:49:08.092Z,14.60
2019-02-12T20:52:13.990Z,13.80
2019-02-12T20:55:20.043Z,11.63
2019-02-12T20:58:25.970Z,12.57
2019-02-12T21:01:31.894Z,18.60
2019-02-12T21:04:40.240Z,14.40
2019-02-12T21:07:46.207Z,10.73
2019-02-12T21:10:52.050Z,19.67
2019-02-12T21:13:57.855Z,11.50
2019-02-12T21:17:03.665Z,12.03
2019-02-12T21:20:10.652Z,9.30
2019-02-12T21:23:16.610Z,15.23
2019-02-12T21:26:22.502Z,11.43
2019-02-12T21:29:28.257Z,17.47
2019-02-12T21:32:34.042Z,17.37
2019-02-12T21:35:39.781Z,9.97
2019-02-12T21:38:45.552Z,12.87
2019-02-12T21:41:51.370Z,8.77
2019-02-12T21:44:57.139Z,17.00
2019-02-12T21:48:02.981Z,14.00
2019-02-12T21:51:08.782Z,14.40
2019-02-12T21:54:14.725Z,16.53
2019-02-12T21:57:20.613Z,18.13
2019-02-12T22:00:26.507Z,13.17
2019-02-12T22:03:32.342Z,14.07
2019-02-12T22:06:38.120Z,10.30
2019-02-12T22:09:43.897Z,12.63
2019-02-12T22:12:49.758Z,15.00
2019-02-12T22:15:55.576Z,9.83
2019-02-12T22:19:01.335Z,6.30
2019-02-12T22:22:07.202Z,5.27
2019-02-12T22:25:13.127Z,11.17
2019-02-12T22:28:18.897Z,10.33
2019-02-12T22:31:24.719Z,22.40
2019-02-12T22:34:30.504Z,9.63
2019-02-12T22:37:36.330Z,17.13
2019-02-12T22:40:42.131Z,29.53
2019-02-12T22:43:47.924Z,10.57
2019-02-12T22:46:54.715Z,9.90
2019-02-12T22:50:00.583Z,8.40
2019-02-12T22:53:06.371Z,17.00
2019-02-12T22:56:12.179Z,13.90
2019-02-12T22:59:18.003Z,10.73
2019-02-12T23:02:23.961Z,27.37
2019-02-12T23:05:29.928Z,16.27
2019-02-12T23:08:35.823Z,16.20
2019-02-12T23:11:41.616Z,9.20
2019-02-12T23:14:47.486Z,11.93
2019-02-12T23:17:53.288Z,9.37
2019-02-12T23:20:59.096Z,9.03
2019-02-12T23:24:05.025Z,5.77
2019-02-12T23:27:10.897Z,6.70
2019-02-12T23:30:16.798Z,8.30
2019-02-12T23:33:22.569Z,7.07
2019-02-12T23:36:28.475Z,11.53
2019-02-12T23:39:34.283Z,7.67
2019-02-12T23:42:40.078Z,12.73
2019-02-12T23:45:45.903Z,13.63
2019-02-12T23:48:51.694Z,7.83
2019-02-12T23:51:57.484Z,7.13
2019-02-12T23:55:03.275Z,17.70
2019-02-12T23:58:09.137Z,10.33
